Time;durP1;ratioP1;P1;durP2;ratioP2;P2;SDS_P1;SDS_P2;PMS_P1;PMS_P2;Temp;Humidity;BMP_temperature;BMP_pressure;BME280_temperature;BME280_humidity;BME280_pressure;Samples;Min_cycle;Max_cycle;Signal;HPM_P1;HPM_P2
2023/09/14 15:54:41;;;;;;;7.68;3.92;;;18.90;99.90;;;18.99;55.59;101086.41;5570318;23;20048;-85
2023/09/14 15:57:09;;;;;;;7.88;3.60;;;18.90;99.90;;;19.01;55.11;101081.56;4899906;29;20512;-84
2023/09/14 15:59:36;;;;;;;8.27;3.80;;;18.90;99.40;;;19.03;56.44;101084.81;4884940;29;20090;-85
2023/09/14 16:02:04;;;;;;;7.97;4.10;;;19.00;99.90;;;19.02;55.50;101081.28;4915805;29;20071;-84
2023/09/14 16:04:32;;;;;;;7.25;4.30;;;18.90;99.90;;;19.01;54.54;101084.25;4917376;29;20048;-85
2023/09/14 16:06:59;;;;;;;6.57;4.07;;;19.00;99.30;;;19.01;54.45;101076.97;4916661;29;20138;-85
2023/09/14 16:09:27;;;;;;;8.75;4.63;;;18.90;98.80;;;19.00;53.29;101078.03;4899867;29;20048;-84
2023/09/14 16:11:55;;;;;;;8.73;4.70;;;19.00;97.20;;;19.02;54.68;101075.06;4916808;29;20100;-84
2023/09/14 16:14:24;;;;;;;10.13;4.43;;;18.90;98.50;;;19.00;53.74;101075.34;4916573;29;20099;-85
2023/09/14 16:16:51;;;;;;;7.03;4.00;;;18.90;97.70;;;19.02;54.86;101075.06;4884168;29;20079;-84
2023/09/14 16:19:19;;;;;;;6.45;4.13;;;19.00;99.60;;;19.02;54.60;101078.59;4899821;29;20044;-84
2023/09/14 16:21:46;;;;;;;9.85;4.10;;;19.00;99.20;;;19.04;54.31;101078.34;4900667;29;20506;-84
2023/09/14 16:24:15;;;;;;;8.88;4.57;;;18.90;98.70;;;19.02;53.85;101069.66;4917174;29;20070;-84
2023/09/14 16:26:42;;;;;;;8.95;4.32;;;18.90;97.90;;;19.03;54.37;101082.94;4899868;29;20052;-84
2023/09/14 16:29:11;;;;;;;7.82;4.38;;;18.90;98.90;;;19.02;53.63;101069.66;4900081;29;20048;-84
2023/09/14 16:31:38;;;;;;;5.78;3.80;;;18.90;97.90;;;19.06;56.24;101075.38;4916935;29;20059;-83
2023/09/14 16:34:06;;;;;;;6.90;4.00;;;18.90;99.90;;;19.02;53.32;101075.06;4900378;29;20127;-84
2023/09/14 16:36:33;;;;;;;8.05;4.30;;;18.90;97.80;;;19.01;53.87;101074.25;4899901;29;20509;-84
2023/09/14 16:39:06;;;;;;;7.35;4.05;;;18.90;98.70;;;19.01;53.55;101078.84;4915586;29;20091;-84
2023/09/14 16:41:34;;;;;;;8.73;4.00;;;18.90;97.60;;;19.02;55.25;101069.66;4900195;29;20063;-84
2023/09/14 16:44:02;;;;;;;8.15;4.10;;;18.90;99.90;;;18.99;57.15;101071.00;4884894;29;20079;-84
2023/09/14 16:46:31;;;;;;;6.60;3.90;;;18.80;99.90;;;18.98;60.01;101074.78;4899806;29;20433;-84
2023/09/14 16:49:21;;;;;;;8.00;3.80;;;18.80;99.90;;;18.92;58.92;101067.66;4915315;29;20104;-85
2023/09/14 16:51:51;;;;;;;7.57;3.47;;;18.70;99.90;;;18.85;56.85;101066.22;4914195;29;20048;-83
2023/09/14 16:54:19;;;;;;;7.55;4.18;;;18.70;99.90;;;18.87;59.56;101064.91;4915508;29;20048;-83
2023/09/14 16:56:47;;;;;;;9.45;4.30;;;18.60;99.90;;;18.84;60.75;101062.72;4898552;29;20151;-83
2023/09/14 16:59:15;;;;;;;7.90;4.20;;;18.60;99.90;;;18.80;61.31;101066.97;4916923;29;20048;-83
2023/09/14 17:01:44;;;;;;;9.73;3.40;;;18.50;99.90;;;18.73;57.72;101069.03;4902990;29;20135;-83
2023/09/14 17:04:12;;;;;;;7.45;3.78;;;18.50;99.90;;;18.71;58.11;101061.19;4903024;29;20044;-83
2023/09/14 17:06:40;;;;;;;8.43;4.10;;;18.50;99.90;;;18.72;58.94;101064.69;4918859;29;20051;-83
2023/09/14 17:09:08;;;;;;;8.77;4.10;;;18.50;99.90;;;18.70;57.77;101056.84;4911126;29;20072;-82
2023/09/14 17:11:36;;;;;;;6.97;3.70;;;18.50;99.90;;;18.72;60.45;101062.00;4919747;29;20048;-83
2023/09/14 17:14:04;;;;;;;10.48;3.28;;;18.40;99.90;;;18.68;60.79;101061.69;4919811;29;20470;-83
2023/09/14 17:16:33;;;;;;;8.43;3.78;;;18.40;99.90;;;18.63;59.55;101064.28;4920141;29;20104;-82
2023/09/14 17:19:02;;;;;;;6.25;3.45;;;18.40;99.90;;;18.61;61.40;101062.91;4918729;29;20062;-82
2023/09/14 17:21:31;;;;;;;8.18;3.42;;;18.30;99.90;;;18.56;61.80;101055.56;4919732;29;20040;-83
2023/09/14 17:23:58;;;;;;;7.43;3.50;;;18.20;99.90;;;18.52;62.30;101052.53;4918559;29;20099;-84
2023/09/14 17:26:27;;;;;;;7.82;3.72;;;18.20;99.90;;;18.48;62.27;101053.28;4919912;29;20048;-84
2023/09/14 17:28:55;;;;;;;7.78;3.55;;;18.10;99.90;;;18.43;62.52;101050.50;4919656;29;20124;-86
2023/09/14 17:31:22;;;;;;;8.20;3.35;;;18.00;99.90;;;18.39;62.62;101057.47;4919755;29;20528;-83
2023/09/14 17:33:50;;;;;;;9.60;3.72;;;18.00;99.90;;;18.33;62.86;101056.59;4887347;29;20072;-84
2023/09/14 17:36:19;;;;;;;8.15;4.10;;;17.90;99.90;;;18.30;63.10;101064.34;4919743;29;20048;-83
2023/09/14 17:38:46;;;;;;;8.55;3.70;;;17.80;99.90;;;18.25;63.11;101062.38;4918619;29;20076;-83
2023/09/14 17:41:14;;;;;;;7.97;3.60;;;17.70;99.90;;;18.20;63.68;101062.31;4919622;29;20519;-83
2023/09/14 17:43:41;;;;;;;6.60;3.53;;;17.70;99.90;;;18.16;63.78;101058.50;4902797;29;20076;-83
2023/09/14 17:46:09;;;;;;;6.50;3.70;;;17.70;99.90;;;18.12;64.33;101060.88;4887158;29;20060;-83
2023/09/14 17:48:37;;;;;;;9.02;3.58;;;17.60;99.90;;;18.11;64.20;101058.44;4902860;29;20044;-84
2023/09/14 17:51:05;;;;;;;6.47;3.60;;;17.60;99.90;;;18.08;64.62;101058.91;4902320;29;20087;-84
2023/09/14 17:53:34;;;;;;;8.52;3.97;;;17.60;99.90;;;18.04;64.76;101055.06;4918333;29;20508;-84
2023/09/14 17:56:02;;;;;;;7.18;3.80;;;17.50;99.90;;;17.99;64.89;101058.50;4919341;29;20060;-84
2023/09/14 17:58:31;;;;;;;9.32;4.25;;;17.50;99.90;;;17.96;64.91;101062.53;4902518;29;20044;-83
2023/09/14 18:00:58;;;;;;;7.78;3.63;;;17.40;99.90;;;17.92;64.70;101057.84;4918098;29;20047;-83
2023/09/14 18:03:26;;;;;;;7.43;3.60;;;17.40;99.90;;;17.88;64.80;101060.22;4918833;29;20519;-83
2023/09/14 18:05:55;;;;;;;7.28;3.60;;;17.40;99.90;;;17.87;64.85;101071.25;4902731;29;20497;-83
2023/09/14 18:08:23;;;;;;;7.68;3.50;;;17.40;99.90;;;17.83;64.64;101067.41;4919024;29;20136;-83
2023/09/14 18:10:53;;;;;;;6.78;3.80;;;17.30;99.90;;;17.81;64.86;101074.91;4901113;29;20048;-82
2023/09/14 18:13:22;;;;;;;7.88;4.00;;;17.30;99.90;;;17.78;64.76;101078.13;4917574;29;20048;-83
2023/09/14 18:15:54;;;;;;;7.72;3.45;;;17.30;99.90;;;17.74;65.14;101081.28;4902079;29;20071;-83
2023/09/14 18:18:21;;;;;;;7.90;3.83;;;17.20;99.90;;;17.71;64.86;101079.06;4917897;29;20505;-85
2023/09/14 18:20:51;;;;;;;8.27;4.13;;;17.20;99.90;;;17.68;64.90;101081.44;4902229;29;20048;-85
2023/09/14 18:23:19;;;;;;;8.88;3.78;;;17.20;99.90;;;17.64;64.98;101086.50;4918741;29;20082;-85
2023/09/14 18:25:54;;;;;;;9.23;3.78;;;17.10;99.90;;;17.60;64.92;101084.50;4901719;29;20535;-85
2023/09/14 18:28:22;;;;;;;7.32;3.65;;;17.10;99.90;;;17.58;64.78;101092.84;4918098;29;20524;-85
2023/09/14 18:30:50;;;;;;;7.03;3.70;;;17.00;99.90;;;17.56;64.93;101091.44;4901429;29;20121;-85
2023/09/14 18:33:18;;;;;;;6.65;3.25;;;17.00;99.90;;;17.53;65.05;101098.16;4901872;29;20143;-84
2023/09/14 18:35:46;;;;;;;8.43;3.50;;;17.00;99.90;;;17.47;65.40;101097.25;4901583;29;20052;-84
2023/09/14 18:38:14;;;;;;;7.38;3.95;;;16.90;99.90;;;17.43;65.11;101095.28;4918499;29;20047;-84
2023/09/14 18:40:41;;;;;;;8.82;3.60;;;16.90;99.90;;;17.41;65.14;101097.38;4886113;29;20127;-84
2023/09/14 18:43:10;;;;;;;7.90;3.80;;;16.80;99.90;;;17.37;65.12;101096.22;4917255;29;20127;-85
2023/09/14 18:45:37;;;;;;;7.80;4.20;;;16.80;99.90;;;17.34;65.18;101096.72;4900334;29;20079;-85
2023/09/14 18:48:07;;;;;;;10.57;4.03;;;16.80;99.90;;;17.31;65.08;101089.91;4899282;29;20036;-85
2023/09/14 18:50:37;;;;;;;6.20;3.78;;;16.70;99.90;;;17.28;65.30;101098.50;4917161;29;20412;-85
2023/09/14 18:53:09;;;;;;;10.55;4.50;;;16.70;99.90;;;17.26;65.17;101100.59;4917439;29;20103;-85
2023/09/14 18:55:47;;;;;;;10.02;4.40;;;16.70;99.90;;;17.21;65.31;101095.13;4915196;29;20080;-85
2023/09/14 18:58:17;;;;;;;7.63;4.18;;;16.60;99.90;;;17.17;65.38;101100.16;4917685;29;20048;-85
2023/09/14 19:00:45;;;;;;;8.15;4.38;;;16.60;99.90;;;17.14;65.26;101102.53;4918065;29;20048;-85
2023/09/14 19:03:12;;;;;;;8.40;4.40;;;16.40;99.90;;;17.12;65.28;101099.25;4917093;29;20497;-84
2023/09/14 19:05:40;;;;;;;8.65;4.00;;;16.50;99.90;;;17.09;65.29;101100.56;4917818;29;20116;-85
2023/09/14 19:08:07;;;;;;;9.40;4.30;;;16.50;99.90;;;17.06;65.21;101102.91;4900706;29;20580;-85
2023/09/14 19:10:36;;;;;;;9.05;5.05;;;16.50;99.90;;;17.02;65.44;101102.56;4885685;29;20040;-85
2023/09/14 19:13:04;;;;;;;8.40;4.25;;;16.50;99.90;;;16.99;65.24;101103.88;4917622;29;20052;-85
2023/09/14 19:15:32;;;;;;;9.40;4.45;;;16.40;99.90;;;16.98;65.54;101110.31;4885490;29;20040;-85
2023/09/14 19:18:02;;;;;;;10.27;4.30;;;16.40;99.90;;;16.95;65.50;101113.47;4901042;29;20044;-85
2023/09/14 19:20:31;;;;;;;11.13;4.30;;;16.40;99.90;;;16.96;65.32;101104.31;4900896;29;20063;-85
2023/09/14 19:22:58;;;;;;;7.38;4.10;;;16.40;99.90;;;16.94;65.40;101108.34;4901059;29;20044;-85
2023/09/14 19:25:26;;;;;;;8.25;4.10;;;16.40;99.90;;;16.92;65.67;101110.44;4900843;29;20048;-85
2023/09/14 19:27:54;;;;;;;8.23;4.25;;;16.30;99.90;;;16.91;65.59;101106.91;4901024;29;20045;-85
2023/09/14 19:30:22;;;;;;;6.95;4.10;;;16.30;99.90;;;16.88;65.51;101110.06;4917230;29;20051;-84
2023/09/14 19:32:52;;;;;;;8.98;4.30;;;16.30;99.90;;;16.85;65.66;101112.44;4900872;29;20044;-85
2023/09/14 19:35:20;;;;;;;6.15;3.90;;;16.30;99.90;;;16.83;65.57;101107.28;4900828;29;20044;-85
2023/09/14 19:37:48;;;;;;;7.63;4.35;;;16.20;99.90;;;16.82;65.69;101112.91;4916143;29;20143;-85
2023/09/14 19:40:18;;;;;;;9.13;4.15;;;16.20;99.90;;;16.80;65.55;101107.75;4900344;29;20127;-84
2023/09/14 19:42:46;;;;;;;15.10;4.53;;;16.20;99.90;;;16.78;65.73;101106.34;4900652;29;20423;-84
2023/09/14 19:45:13;;;;;;;7.60;4.03;;;16.20;99.90;;;16.75;65.61;101104.97;4884910;29;20571;-84
2023/09/14 19:47:42;;;;;;;8.68;4.38;;;16.10;99.90;;;16.69;65.67;101101.31;4917280;29;20076;-85
2023/09/14 19:50:11;;;;;;;8.43;4.00;;;16.10;99.90;;;16.67;65.52;101114.19;4900270;29;20572;-84
2023/09/14 19:52:39;;;;;;;7.68;4.32;;;16.10;99.90;;;16.66;65.66;101100.97;4900522;29;20040;-85
2023/09/14 19:55:07;;;;;;;12.18;4.85;;;16.10;99.90;;;16.63;65.85;101099.53;4916897;29;20107;-85
2023/09/14 19:57:34;;;;;;;8.30;4.25;;;16.00;99.90;;;16.62;65.46;101095.22;4916099;29;20044;-85
2023/09/14 20:00:03;;;;;;;7.03;4.10;;;16.00;99.90;;;16.62;65.63;101097.09;4917392;29;20124;-85
2023/09/14 20:02:36;;;;;;;9.13;4.55;;;16.00;99.90;;;16.60;65.72;101102.72;4901389;29;20075;-84
2023/09/14 20:05:05;;;;;;;9.73;4.07;;;16.00;99.90;;;16.59;65.54;101108.31;4900035;29;20055;-84
2023/09/14 20:07:34;;;;;;;7.25;4.20;;;16.00;99.90;;;16.53;65.93;101103.88;4917002;29;20465;-84
2023/09/14 20:10:03;;;;;;;7.63;4.60;;;15.90;99.90;;;16.47;65.85;101105.66;4916506;29;20048;-84
2023/09/14 20:12:31;;;;;;;11.07;4.05;;;15.90;99.90;;;16.45;65.84;101105.88;4900381;29;20082;-84
2023/09/14 20:14:58;;;;;;;8.95;4.20;;;15.90;99.90;;;16.44;65.88;101098.84;4899995;29;20151;-84
2023/09/14 20:17:26;;;;;;;10.40;4.00;;;15.90;99.90;;;16.43;65.83;101107.97;4900243;29;20088;-84
2023/09/14 20:19:53;;;;;;;7.03;4.07;;;15.80;99.90;;;16.40;65.71;101113.03;4915865;29;20600;-84
2023/09/14 20:22:21;;;;;;;8.48;4.40;;;15.80;99.90;;;16.39;65.71;101101.41;4884567;29;20047;-84
2023/09/14 20:24:54;;;;;;;9.25;4.38;;;15.80;99.90;;;16.36;65.64;101107.28;4916788;29;20060;-85
2023/09/14 20:27:21;;;;;;;7.45;3.70;;;15.80;99.90;;;16.34;65.71;101101.31;4884862;29;20048;-84
2023/09/14 20:35:19;;;;;;;8.07;4.00;;;15.70;99.90;;;16.27;65.85;101099.78;5173300;23;20056;-84
2023/09/14 20:37:47;;;;;;;8.82;4.32;;;15.60;99.90;;;16.25;65.70;101099.19;4858056;29;20044;-84
2023/09/14 20:40:17;;;;;;;9.70;4.13;;;15.60;99.90;;;16.25;65.81;101102.72;4904957;29;20109;-85
2023/09/14 20:42:48;;;;;;;;;;;15.60;99.90;;;16.25;65.79;101104.56;4890054;29;20103;-85
2023/09/14 20:45:16;;;;;;;8.00;4.10;;;15.60;99.90;;;16.20;65.86;101095.34;4921152;29;19966;-85
2023/09/14 20:47:44;;;;;;;10.18;3.90;;;15.60;99.90;;;16.17;65.85;101095.00;4920342;29;20052;-84
2023/09/14 20:50:14;;;;;;;7.95;4.32;;;15.60;99.90;;;16.12;65.91;101097.56;4921340;29;20095;-84
2023/09/14 20:52:41;;;;;;;8.38;4.00;;;15.50;99.90;;;16.12;65.84;101095.69;4921296;29;20497;-85
2023/09/14 20:55:12;;;;;;;8.85;4.40;;;15.50;99.90;;;16.08;65.91;101097.19;4904250;29;20131;-85
2023/09/14 20:57:41;;;;;;;9.13;3.87;;;15.50;99.90;;;16.09;65.77;101093.44;4904819;29;20465;-84
2023/09/14 21:00:15;;;;;;;6.60;3.72;;;15.50;99.90;;;16.08;65.71;101088.31;4920491;29;20144;-84
2023/09/14 21:02:43;;;;;;;7.72;4.00;;;15.40;99.90;;;16.06;65.69;101082.34;4919458;29;20424;-85
2023/09/14 21:05:11;;;;;;;7.28;4.32;;;15.40;99.90;;;16.03;65.91;101080.94;4921076;29;20485;-84
2023/09/14 21:07:41;;;;;;;8.88;4.93;;;15.40;99.90;;;16.04;66.06;101081.75;4920746;29;20052;-84
2023/09/14 21:10:10;;;;;;;7.47;3.72;;;15.40;99.90;;;16.00;66.12;101080.56;4903914;29;20424;-84
2023/09/14 21:12:41;;;;;;;8.70;4.38;;;15.40;99.90;;;15.96;65.89;101075.66;4903546;29;20036;-84
2023/09/14 21:15:09;;;;;;;9.25;4.13;;;15.30;99.90;;;15.96;65.79;101078.34;4888507;29;20052;-84
2023/09/14 21:17:38;;;;;;;7.68;3.83;;;15.30;99.90;;;15.96;65.67;101080.22;4919366;29;20055;-84
2023/09/14 21:20:08;;;;;;;8.63;4.10;;;15.30;99.90;;;15.95;65.82;101075.88;4920867;29;20092;-85
2023/09/14 21:22:35;;;;;;;11.93;4.30;;;15.30;99.90;;;15.93;65.61;101076.13;4888548;29;20107;-85
2023/09/14 21:25:04;;;;;;;8.73;3.85;;;15.30;99.90;;;15.93;65.68;101080.69;4920661;29;20044;-85
2023/09/14 21:27:32;;;;;;;8.82;3.78;;;15.30;99.90;;;15.89;65.65;101077.63;4920913;29;20056;-85
2023/09/14 21:30:04;;;;;;;7.57;4.00;;;15.30;99.90;;;15.87;65.73;101081.63;4903858;29;20413;-84
2023/09/14 21:32:31;;;;;;;7.78;3.55;;;15.20;99.90;;;15.83;65.76;101081.25;4888378;29;20052;-84
2023/09/14 21:34:59;;;;;;;9.85;4.10;;;15.20;99.90;;;15.82;65.71;101078.81;4903318;29;20052;-84
2023/09/14 21:37:27;;;;;;;6.90;4.10;;;15.20;99.90;;;15.79;65.57;101074.69;4920753;29;20459;-84
2023/09/14 21:39:55;;;;;;;6.53;3.78;;;15.20;99.90;;;15.78;65.70;101070.38;4920545;29;20040;-85
2023/09/14 21:42:22;;;;;;;8.65;4.38;;;15.10;99.90;;;15.76;65.64;101069.75;4919268;29;20047;-85
2023/09/14 21:44:51;;;;;;;8.38;4.53;;;15.10;99.90;;;15.73;65.79;101083.69;4918691;29;20056;-85
2023/09/14 21:47:21;;;;;;;6.95;3.88;;;15.10;99.90;;;15.73;65.76;101080.19;4903252;29;20067;-85
2023/09/14 21:49:50;;;;;;;8.70;4.03;;;15.10;99.90;;;15.69;65.77;101087.88;4903431;29;20071;-84
2023/09/14 21:52:19;;;;;;;9.32;4.07;;;15.10;99.90;;;15.65;65.65;101084.00;4887713;29;20137;-84
2023/09/14 21:54:46;;;;;;;6.60;3.50;;;15.00;99.90;;;15.65;65.59;101081.31;4903312;29;20048;-84
2023/09/14 21:57:16;;;;;;;7.25;3.88;;;15.00;99.90;;;15.64;65.64;101082.38;4903111;29;20060;-84
2023/09/14 21:59:44;;;;;;;6.43;3.88;;;15.00;99.90;;;15.64;65.62;101085.06;4904456;29;20044;-84
2023/09/14 22:02:13;;;;;;;10.27;4.00;;;15.00;99.90;;;15.60;65.63;101079.28;4903215;29;20048;-84
2023/09/14 22:04:42;;;;;;;10.30;3.75;;;15.00;99.90;;;15.58;65.64;101077.88;4919719;29;20044;-85
2023/09/14 22:07:10;;;;;;;8.32;4.05;;;14.90;99.90;;;15.58;65.57;101077.88;4919995;29;20043;-84
2023/09/14 22:09:40;;;;;;;9.02;4.00;;;14.90;99.90;;;15.57;65.57;101076.25;4902465;29;20044;-84
2023/09/14 22:12:09;;;;;;;7.90;4.20;;;14.90;99.90;;;15.54;65.60;101071.31;4918597;29;20048;-84
2023/09/14 22:14:36;;;;;;;7.85;4.13;;;14.90;99.90;;;15.53;65.67;101075.88;4886858;29;20048;-84
2023/09/14 22:17:08;;;;;;;8.38;3.50;;;14.90;99.90;;;15.49;65.65;101071.19;4871618;29;20056;-84
2023/09/14 22:19:35;;;;;;;7.45;4.00;;;14.90;99.90;;;15.45;65.82;101076.19;4919744;29;20040;-84
2023/09/14 22:22:05;;;;;;;7.32;4.20;;;14.80;99.90;;;15.45;65.92;101068.94;4886910;29;20076;-85
2023/09/14 22:24:32;;;;;;;6.90;3.60;;;14.80;99.90;;;15.44;65.63;101066.50;4902847;29;20501;-84
2023/09/14 22:27:04;;;;;;;8.43;4.13;;;14.80;99.90;;;15.42;65.60;101069.44;4919522;29;20130;-84
2023/09/14 22:29:34;;;;;;;6.05;3.63;;;14.80;99.90;;;15.39;65.78;101069.88;4917939;29;20079;-84
2023/09/14 22:32:02;;;;;;;8.25;3.85;;;14.80;99.90;;;15.39;65.77;101058.31;4902938;29;20078;-84
2023/09/14 22:34:30;;;;;;;6.50;3.72;;;14.80;99.90;;;15.35;65.71;101057.94;4919150;29;20055;-85
2023/09/14 22:36:58;;;;;;;6.53;3.55;;;14.70;99.90;;;15.34;65.69;101058.16;4902330;29;20040;-85
2023/09/14 22:39:27;;;;;;;9.50;4.00;;;14.70;99.90;;;15.31;65.60;101056.75;4902560;29;20048;-84
2023/09/14 22:41:56;;;;;;;8.57;3.67;;;14.60;99.90;;;15.30;65.78;101051.59;4855381;29;20406;-85
2023/09/14 22:44:24;;;;;;;8.73;3.58;;;14.70;99.90;;;15.29;65.62;101047.28;4902683;29;20052;-84
2023/09/14 22:46:52;;;;;;;9.82;3.65;;;14.70;99.90;;;15.27;65.75;101049.34;4902352;29;20398;-84
2023/09/14 22:49:20;;;;;;;8.43;3.80;;;14.60;99.90;;;15.26;65.71;101048.53;4918660;29;20572;-84
2023/09/14 22:51:48;;;;;;;8.82;3.90;;;14.60;99.90;;;15.23;65.71;101049.00;4919305;29;20048;-84
2023/09/14 22:54:15;;;;;;;13.68;4.00;;;14.60;99.90;;;15.22;65.64;101047.34;4919238;29;20055;-85
2023/09/14 22:56:44;;;;;;;8.55;3.63;;;14.60;99.90;;;15.20;65.63;101044.91;4917018;29;20116;-85
2023/09/14 22:59:11;;;;;;;7.68;3.85;;;14.50;99.90;;;15.20;65.84;101046.78;4918812;29;20051;-85
2023/09/14 23:01:39;;;;;;;7.93;3.30;;;14.60;99.90;;;15.19;65.51;101045.97;4918827;29;20087;-85
2023/09/14 23:04:07;;;;;;;9.10;3.60;;;14.50;99.90;;;15.15;65.68;101034.03;4893961;29;20108;-85
2023/09/14 23:06:34;;;;;;;7.90;4.07;;;14.50;99.90;;;15.14;65.69;101028.88;4855066;29;20557;-85
2023/09/14 23:09:06;;;;;;;8.38;3.35;;;14.50;99.90;;;15.14;65.38;101034.25;4901710;29;20135;-85
2023/09/14 23:11:39;;;;;;;7.00;3.47;;;14.50;99.90;;;15.14;65.39;101032.38;4901903;29;20505;-85
2023/09/14 23:14:09;;;;;;;8.38;3.33;;;14.50;99.90;;;15.12;65.64;101029.09;4909768;29;20398;-84
2023/09/14 23:16:44;;;;;;;6.32;3.40;;;14.40;99.90;;;15.11;65.55;101026.63;4918552;29;20050;-84
2023/09/14 23:19:12;;;;;;;5.63;3.60;;;14.40;99.90;;;15.06;65.34;101027.31;4894473;29;20589;-84
2023/09/14 23:21:40;;;;;;;7.10;3.65;;;14.40;99.90;;;15.07;65.26;101026.25;4886050;29;20052;-85
2023/09/14 23:24:09;;;;;;;5.97;3.60;;;14.40;99.90;;;15.05;65.23;101025.69;4886346;29;20044;-84
2023/09/14 23:26:40;;;;;;;6.32;3.00;;;14.40;99.90;;;15.03;65.30;101022.41;4885796;29;20142;-84
2023/09/14 23:29:12;;;;;;;6.43;3.33;;;14.40;99.90;;;15.01;65.51;101026.38;4887240;29;20064;-84
2023/09/14 23:31:42;;;;;;;6.35;3.63;;;14.30;99.90;;;14.98;65.51;101018.75;4918405;29;20044;-84
2023/09/14 23:34:10;;;;;;;8.10;4.13;;;14.30;99.90;;;14.98;65.37;101024.94;4894037;29;20052;-84
2023/09/14 23:36:41;;;;;;;7.75;3.67;;;14.30;99.90;;;14.94;65.25;101024.59;4901488;29;20048;-84
2023/09/14 23:39:10;;;;;;;6.65;3.72;;;14.30;99.90;;;14.96;65.42;101020.84;4901563;29;20096;-85
2023/09/14 23:41:39;;;;;;;6.32;3.40;;;14.30;99.90;;;14.93;65.43;101017.59;4901193;29;20048;-84
2023/09/14 23:44:11;;;;;;;5.57;3.08;;;14.30;99.90;;;14.92;65.24;101021.28;4901477;29;20047;-84
2023/09/14 23:46:40;;;;;;;6.07;3.33;;;14.30;99.90;;;14.90;65.41;101015.34;4901530;29;20143;-84
2023/09/14 23:49:12;;;;;;;6.45;3.42;;;14.20;99.90;;;14.89;65.41;101013.72;4910340;29;20052;-84
2023/09/14 23:51:43;;;;;;;5.40;3.20;;;14.20;99.90;;;14.87;65.21;101012.28;4916751;29;20056;-84
2023/09/14 23:54:12;;;;;;;7.57;3.42;;;14.20;99.90;;;14.86;65.01;101016.00;4917802;29;20048;-84
2023/09/14 23:56:40;;;;;;;9.10;3.35;;;14.10;99.90;;;14.85;65.05;101014.38;4916731;29;20095;-84
2023/09/14 23:59:10;;;;;;;8.05;3.53;;;14.10;99.90;;;14.82;64.95;101010.28;4893502;29;20048;-84
